الصفحة الرئيسية
METAR-TAF:

METAR-TAF

مطار :

فور دو فرانس, مارتينيك

دائرة عرض: 14-36N, خط طول: 061-00W, ارتفاع: 5 متر

مراقبة الطقس الحالي

تاريخ ووقت الإصدار 22 دقيقة قبل الساعة 12:30UTC
ريح 11 عقدة من الشرق, الاتجاه يتراوح بين الشرق/الشمال الشرقي و الجنوب الشرقي
درجة الحرارة 27°درجة مئوية
الرطوبة 74%
ضغط 1017 hPa
الرؤية 10 كم أو أكثر

METAR: TFFF 201230Z AUTO 10011KT 060V130 9999 BKN026/// BKN039/// 27/22 Q1017 TEMPO 4000 SHRA BKN018TCU

زمن: 08:52 (12:52 UTC)

توقعات

تاريخ ووقت الإصدار 1ساعة و 52 دقيقة قبل الساعة 11:00UTC
التوقعات صالحة من20 الساعة 12 UTC إلى 21 الساعة 12 UTC
ريح 10 عقدة من الشرق
الرؤية 10 كم أو أكثر
غيوم متفرقة على ارتفاع 2600 قدم
غيوم متفرقة على ارتفاع 6000 قدم
نظرية الاحتمالات 30% :
مؤقت
من 20 الساعة 12 UTC إلى 20 الساعة 24 UTC
الرؤية: 4000 متر
غيوم مفككة على ارتفاع 1800 قدم, مزن ركامية عمودية.
زخات من المطر

TAF: TFFF 201100Z 2012/2112 08010KT 9999 SCT026 SCT060 PROB30 TEMPO 2012/2024 4000 SHRA BKN018TCU

أرصاد الطقس والتوقعات من أكثر من 4000 مطار (تقارير الطقس للمطار METAR والتنبؤ بالطقس بالمطارTAF).

المحطات المتاحة هي النقط الصفراء والحمراء على الخريطة.

حرك المؤشر فوق النقطة لمعرفة اسم المحطة.

ثم انقر لمعرفة أرصاد وتوقعات الطقس.

لتغيير الخارطة: اضغط على الأزرار الخضراء مع رمز الصليب الأسود للتكبير. على الزر الأخضر مع شرطة للتصغير، أو على الأسهم الخضراء للخرائط المجاورة.


METAR-TAF: